sensor_id;sensor_type;location;lat;lon;timestamp;pressure;altitude;pressure_sealevel;temperature;humidity
79671;BME280;69137;50.878;8.050;2023-04-25T00:01:03;97627.38;;;4.14;82.52
79671;BME280;69137;50.878;8.050;2023-04-25T00:03:31;97631.81;;;4.20;81.72
79671;BME280;69137;50.878;8.050;2023-04-25T00:05:58;97625.66;;;4.08;82.25
79671;BME280;69137;50.878;8.050;2023-04-25T00:08:29;97621.31;;;4.07;82.04
79671;BME280;69137;50.878;8.050;2023-04-25T00:10:56;97627.72;;;4.18;81.81
79671;BME280;69137;50.878;8.050;2023-04-25T00:13:22;97624.84;;;4.07;82.35
79671;BME280;69137;50.878;8.050;2023-04-25T00:15:47;97623.28;;;4.11;82.09
79671;BME280;69137;50.878;8.050;2023-04-25T00:18:14;97631.16;;;4.13;81.89
79671;BME280;69137;50.878;8.050;2023-04-25T00:20:39;97627.22;;;4.04;82.48
79671;BME280;69137;50.878;8.050;2023-04-25T00:23:05;97631.66;;;4.10;82.16
79671;BME280;69137;50.878;8.050;2023-04-25T00:25:31;97634.41;;;3.98;82.67
79671;BME280;69137;50.878;8.050;2023-04-25T00:27:57;97633.81;;;3.96;82.80
79671;BME280;69137;50.878;8.050;2023-04-25T00:30:22;97636.19;;;3.92;82.70
79671;BME280;69137;50.878;8.050;2023-04-25T00:32:47;97636.78;;;3.94;82.67
79671;BME280;69137;50.878;8.050;2023-04-25T00:35:14;97637.69;;;4.00;82.42
79671;BME280;69137;50.878;8.050;2023-04-25T00:37:39;97634.72;;;4.02;82.00
79671;BME280;69137;50.878;8.050;2023-04-25T00:40:06;97639.59;;;4.00;82.45
79671;BME280;69137;50.878;8.050;2023-04-25T00:42:31;97634.09;;;3.94;82.66
79671;BME280;69137;50.878;8.050;2023-04-25T00:44:58;97637.09;;;3.98;82.06
79671;BME280;69137;50.878;8.050;2023-04-25T00:47:27;97632.03;;;4.02;81.95
79671;BME280;69137;50.878;8.050;2023-04-25T00:49:53;97628.00;;;3.87;82.21
79671;BME280;69137;50.878;8.050;2023-04-25T00:52:19;97635.50;;;3.85;82.21
79671;BME280;69137;50.878;8.050;2023-04-25T00:54:45;97632.81;;;3.85;81.80
79671;BME280;69137;50.878;8.050;2023-04-25T00:57:11;97631.31;;;3.78;82.58
79671;BME280;69137;50.878;8.050;2023-04-25T00:59:37;97626.13;;;3.76;82.16
79671;BME280;69137;50.878;8.050;2023-04-25T01:02:04;97630.19;;;3.74;81.85
79671;BME280;69137;50.878;8.050;2023-04-25T01:04:30;97626.19;;;3.64;82.69
79671;BME280;69137;50.878;8.050;2023-04-25T01:06:55;97626.09;;;3.59;82.75
79671;BME280;69137;50.878;8.050;2023-04-25T01:09:22;97630.19;;;3.74;82.08
79671;BME280;69137;50.878;8.050;2023-04-25T01:11:48;97632.78;;;3.68;82.50
79671;BME280;69137;50.878;8.050;2023-04-25T01:14:14;97634.72;;;3.73;81.97
79671;BME280;69137;50.878;8.050;2023-04-25T01:16:39;97636.50;;;3.67;82.12
79671;BME280;69137;50.878;8.050;2023-04-25T01:19:09;97631.50;;;3.59;82.64
79671;BME280;69137;50.878;8.050;2023-04-25T01:21:37;97633.97;;;3.61;82.79
79671;BME280;69137;50.878;8.050;2023-04-25T01:24:03;97646.88;;;3.59;82.76
79671;BME280;69137;50.878;8.050;2023-04-25T01:26:28;97638.88;;;3.64;82.62
79671;BME280;69137;50.878;8.050;2023-04-25T01:28:54;97629.22;;;3.68;82.07
79671;BME280;69137;50.878;8.050;2023-04-25T01:31:20;97633.50;;;3.64;81.50
79671;BME280;69137;50.878;8.050;2023-04-25T01:33:47;97634.91;;;3.55;82.04
79671;BME280;69137;50.878;8.050;2023-04-25T01:36:12;97625.56;;;3.45;82.27
79671;BME280;69137;50.878;8.050;2023-04-25T01:38:38;97635.88;;;3.48;81.76
79671;BME280;69137;50.878;8.050;2023-04-25T01:41:05;97639.63;;;3.47;81.52
79671;BME280;69137;50.878;8.050;2023-04-25T01:43:31;97640.34;;;3.43;81.65
79671;BME280;69137;50.878;8.050;2023-04-25T01:45:56;97637.06;;;3.41;81.78
79671;BME280;69137;50.878;8.050;2023-04-25T01:48:22;97637.28;;;3.39;82.23
79671;BME280;69137;50.878;8.050;2023-04-25T01:50:48;97651.97;;;3.43;81.78
79671;BME280;69137;50.878;8.050;2023-04-25T01:53:14;97648.69;;;3.41;81.88
79671;BME280;69137;50.878;8.050;2023-04-25T01:55:39;97649.06;;;3.33;82.59
79671;BME280;69137;50.878;8.050;2023-04-25T01:58:05;97654.47;;;3.33;82.86
79671;BME280;69137;50.878;8.050;2023-04-25T02:00:35;97655.75;;;3.31;82.93
79671;BME280;69137;50.878;8.050;2023-04-25T02:03:03;97668.81;;;3.22;83.95
79671;BME280;69137;50.878;8.050;2023-04-25T02:05:28;97667.84;;;3.16;84.68
79671;BME280;69137;50.878;8.050;2023-04-25T02:07:54;97665.63;;;3.25;84.85
79671;BME280;69137;50.878;8.050;2023-04-25T02:10:20;97663.84;;;3.31;84.44
79671;BME280;69137;50.878;8.050;2023-04-25T02:12:45;97669.09;;;3.37;84.41
79671;BME280;69137;50.878;8.050;2023-04-25T02:15:11;97669.69;;;3.39;84.97
79671;BME280;69137;50.878;8.050;2023-04-25T02:17:36;97666.41;;;3.37;84.59
79671;BME280;69137;50.878;8.050;2023-04-25T02:20:02;97668.28;;;3.48;84.17
79671;BME280;69137;50.878;8.050;2023-04-25T02:22:27;97657.81;;;3.52;84.42
79671;BME280;69137;50.878;8.050;2023-04-25T02:24:55;97653.22;;;3.53;84.41
79671;BME280;69137;50.878;8.050;2023-04-25T02:27:21;97657.78;;;3.64;83.83
79671;BME280;69137;50.878;8.050;2023-04-25T02:29:46;97652.97;;;3.66;84.08
79671;BME280;69137;50.878;8.050;2023-04-25T02:32:11;97661.31;;;3.64;84.42
79671;BME280;69137;50.878;8.050;2023-04-25T02:34:37;97659.16;;;3.78;83.71
79671;BME280;69137;50.878;8.050;2023-04-25T02:37:02;97659.72;;;3.80;83.17
79671;BME280;69137;50.878;8.050;2023-04-25T02:39:28;97658.44;;;3.83;83.18
79671;BME280;69137;50.878;8.050;2023-04-25T02:41:53;97653.16;;;3.76;83.91
79671;BME280;69137;50.878;8.050;2023-04-25T02:44:18;97659.13;;;3.90;83.94
79671;BME280;69137;50.878;8.050;2023-04-25T02:46:44;97653.22;;;3.93;83.20
79671;BME280;69137;50.878;8.050;2023-04-25T02:49:09;97653.31;;;3.98;82.71
79671;BME280;69137;50.878;8.050;2023-04-25T02:51:35;97647.91;;;3.98;83.03
79671;BME280;69137;50.878;8.050;2023-04-25T02:54:00;97646.28;;;3.97;82.81
79671;BME280;69137;50.878;8.050;2023-04-25T02:56:26;97643.72;;;3.90;83.32
79671;BME280;69137;50.878;8.050;2023-04-25T02:58:52;97640.03;;;3.97;82.70
79671;BME280;69137;50.878;8.050;2023-04-25T03:01:17;97645.94;;;3.93;83.09
79671;BME280;69137;50.878;8.050;2023-04-25T03:03:43;97639.94;;;3.91;82.68
79671;BME280;69137;50.878;8.050;2023-04-25T03:06:08;97639.84;;;3.86;82.34
79671;BME280;69137;50.878;8.050;2023-04-25T03:08:33;97633.88;;;3.84;83.04
79671;BME280;69137;50.878;8.050;2023-04-25T03:10:59;97637.16;;;3.86;82.09
79671;BME280;69137;50.878;8.050;2023-04-25T03:13:25;97635.09;;;3.77;82.79
79671;BME280;69137;50.878;8.050;2023-04-25T03:15:52;97637.63;;;3.83;82.45
79671;BME280;69137;50.878;8.050;2023-04-25T03:18:18;97641.16;;;3.84;82.39
79671;BME280;69137;50.878;8.050;2023-04-25T03:20:43;97637.16;;;3.86;81.90
79671;BME280;69137;50.878;8.050;2023-04-25T03:23:09;97639.19;;;3.79;82.35
79671;BME280;69137;50.878;8.050;2023-04-25T03:25:34;97643.53;;;3.80;82.46
79671;BME280;69137;50.878;8.050;2023-04-25T03:28:00;97641.03;;;3.79;82.61
79671;BME280;69137;50.878;8.050;2023-04-25T03:30:25;97643.31;;;3.70;82.59
79671;BME280;69137;50.878;8.050;2023-04-25T03:32:50;97633.69;;;3.74;82.87
79671;BME280;69137;50.878;8.050;2023-04-25T03:35:16;97626.53;;;3.68;82.90
79671;BME280;69137;50.878;8.050;2023-04-25T03:37:41;97627.31;;;3.80;82.48
79671;BME280;69137;50.878;8.050;2023-04-25T03:40:11;97633.81;;;3.67;82.92
79671;BME280;69137;50.878;8.050;2023-04-25T03:42:36;97626.06;;;3.71;82.57
79671;BME280;69137;50.878;8.050;2023-04-25T03:45:01;97633.38;;;3.59;83.07
79671;BME280;69137;50.878;8.050;2023-04-25T03:47:27;97628.22;;;3.57;83.15
79671;BME280;69137;50.878;8.050;2023-04-25T03:49:52;97627.06;;;3.53;82.96
79671;BME280;69137;50.878;8.050;2023-04-25T03:52:18;97630.69;;;3.47;83.43
79671;BME280;69137;50.878;8.050;2023-04-25T03:54:43;97626.84;;;3.43;83.69
79671;BME280;69137;50.878;8.050;2023-04-25T03:57:09;97636.47;;;3.50;83.40
79671;BME280;69137;50.878;8.050;2023-04-25T03:59:35;97634.69;;;3.44;83.93
79671;BME280;69137;50.878;8.050;2023-04-25T04:02:00;97631.66;;;3.41;83.29
79671;BME280;69137;50.878;8.050;2023-04-25T04:04:26;97631.78;;;3.34;83.56
79671;BME280;69137;50.878;8.050;2023-04-25T04:06:51;97638.03;;;3.35;83.29
79671;BME280;69137;50.878;8.050;2023-04-25T04:09:17;97637.22;;;3.11;84.31
79671;BME280;69137;50.878;8.050;2023-04-25T04:11:44;97650.50;;;3.12;84.55
79671;BME280;69137;50.878;8.050;2023-04-25T04:14:10;97649.78;;;3.17;84.59
79671;BME280;69137;50.878;8.050;2023-04-25T04:16:35;97649.44;;;3.25;84.74
79671;BME280;69137;50.878;8.050;2023-04-25T04:19:01;97652.47;;;3.28;84.68
79671;BME280;69137;50.878;8.050;2023-04-25T04:21:26;97653.75;;;3.26;85.10
79671;BME280;69137;50.878;8.050;2023-04-25T04:23:52;97651.75;;;3.33;84.41
79671;BME280;69137;50.878;8.050;2023-04-25T04:26:19;97646.94;;;3.35;84.37
79671;BME280;69137;50.878;8.050;2023-04-25T04:28:48;97653.63;;;3.33;84.79
79671;BME280;69137;50.878;8.050;2023-04-25T04:31:16;97651.66;;;3.28;84.33
79671;BME280;69137;50.878;8.050;2023-04-25T04:33:43;97650.56;;;3.29;84.58
79671;BME280;69137;50.878;8.050;2023-04-25T04:36:09;97651.75;;;3.21;84.91
79671;BME280;69137;50.878;8.050;2023-04-25T04:38:35;97662.66;;;3.26;84.98
79671;BME280;69137;50.878;8.050;2023-04-25T04:41:03;97655.75;;;3.31;84.62
79671;BME280;69137;50.878;8.050;2023-04-25T04:43:29;97649.53;;;3.30;84.80
79671;BME280;69137;50.878;8.050;2023-04-25T04:45:55;97649.88;;;3.34;84.19
79671;BME280;69137;50.878;8.050;2023-04-25T04:48:22;97657.59;;;3.42;83.71
79671;BME280;69137;50.878;8.050;2023-04-25T04:50:47;97648.63;;;3.24;84.43
79671;BME280;69137;50.878;8.050;2023-04-25T04:53:13;97659.75;;;3.28;84.49
79671;BME280;69137;50.878;8.050;2023-04-25T04:55:39;97663.16;;;3.23;84.55
79671;BME280;69137;50.878;8.050;2023-04-25T04:58:06;97657.88;;;3.28;84.29
79671;BME280;69137;50.878;8.050;2023-04-25T05:00:32;97661.03;;;3.25;84.46
79671;BME280;69137;50.878;8.050;2023-04-25T05:02:58;97669.94;;;3.38;84.33
79671;BME280;69137;50.878;8.050;2023-04-25T05:05:24;97676.75;;;3.40;84.78
79671;BME280;69137;50.878;8.050;2023-04-25T05:07:51;97672.41;;;3.39;84.84
79671;BME280;69137;50.878;8.050;2023-04-25T05:10:19;97684.22;;;3.50;84.43
79671;BME280;69137;50.878;8.050;2023-04-25T05:12:45;97688.72;;;3.56;84.41
79671;BME280;69137;50.878;8.050;2023-04-25T05:15:11;97689.25;;;3.70;84.02
79671;BME280;69137;50.878;8.050;2023-04-25T05:17:36;97688.53;;;3.75;83.93
79671;BME280;69137;50.878;8.050;2023-04-25T05:20:02;97690.53;;;3.79;83.98
79671;BME280;69137;50.878;8.050;2023-04-25T05:22:29;97697.34;;;3.82;83.58
79671;BME280;69137;50.878;8.050;2023-04-25T05:24:54;97696.03;;;3.84;83.58
79671;BME280;69137;50.878;8.050;2023-04-25T05:27:20;97701.53;;;3.89;84.03
79671;BME280;69137;50.878;8.050;2023-04-25T05:29:45;97707.59;;;3.97;83.62
79671;BME280;69137;50.878;8.050;2023-04-25T05:32:11;97713.50;;;3.93;83.79
79671;BME280;69137;50.878;8.050;2023-04-25T05:34:36;97719.13;;;4.04;83.63
79671;BME280;69137;50.878;8.050;2023-04-25T05:37:02;97728.63;;;4.06;83.50
79671;BME280;69137;50.878;8.050;2023-04-25T05:39:27;97717.59;;;4.08;83.72
79671;BME280;69137;50.878;8.050;2023-04-25T05:41:53;97726.00;;;4.23;83.41
79671;BME280;69137;50.878;8.050;2023-04-25T05:44:18;97720.09;;;4.26;83.26
79671;BME280;69137;50.878;8.050;2023-04-25T05:46:44;97723.56;;;4.38;82.75
79671;BME280;69137;50.878;8.050;2023-04-25T05:49:09;97734.63;;;4.37;83.77
79671;BME280;69137;50.878;8.050;2023-04-25T05:51:35;97729.06;;;4.44;82.90
79671;BME280;69137;50.878;8.050;2023-04-25T05:54:00;97740.53;;;4.51;82.45
79671;BME280;69137;50.878;8.050;2023-04-25T05:56:26;97743.34;;;4.56;83.16
79671;BME280;69137;50.878;8.050;2023-04-25T05:58:51;97737.97;;;4.73;82.10
79671;BME280;69137;50.878;8.050;2023-04-25T06:01:17;97739.09;;;4.77;82.15
79671;BME280;69137;50.878;8.050;2023-04-25T06:03:42;97749.38;;;4.75;83.00
79671;BME280;69137;50.878;8.050;2023-04-25T06:06:08;97752.81;;;4.70;81.90
79671;BME280;69137;50.878;8.050;2023-04-25T06:08:34;97755.16;;;4.67;82.03
79671;BME280;69137;50.878;8.050;2023-04-25T06:11:00;97754.44;;;4.71;82.74
79671;BME280;69137;50.878;8.050;2023-04-25T06:13:26;97757.25;;;4.48;83.03
79671;BME280;69137;50.878;8.050;2023-04-25T06:15:51;97755.34;;;4.60;82.27
79671;BME280;69137;50.878;8.050;2023-04-25T06:18:17;97749.09;;;4.59;82.34
79671;BME280;69137;50.878;8.050;2023-04-25T06:20:42;97760.06;;;4.53;83.02
79671;BME280;69137;50.878;8.050;2023-04-25T06:23:08;97761.97;;;4.52;83.69
79671;BME280;69137;50.878;8.050;2023-04-25T06:25:33;97765.66;;;4.46;82.78
79671;BME280;69137;50.878;8.050;2023-04-25T06:27:58;97770.59;;;4.66;82.12
79671;BME280;69137;50.878;8.050;2023-04-25T06:30:24;97764.25;;;4.60;83.07
79671;BME280;69137;50.878;8.050;2023-04-25T06:32:51;97761.88;;;4.64;82.84
79671;BME280;69137;50.878;8.050;2023-04-25T06:35:18;97767.97;;;4.71;82.67
79671;BME280;69137;50.878;8.050;2023-04-25T06:37:43;97770.78;;;4.76;82.59
79671;BME280;69137;50.878;8.050;2023-04-25T06:40:09;97760.28;;;4.80;82.49
79671;BME280;69137;50.878;8.050;2023-04-25T06:42:36;97765.94;;;4.78;82.44
79671;BME280;69137;50.878;8.050;2023-04-25T06:45:01;97775.47;;;4.81;82.78
79671;BME280;69137;50.878;8.050;2023-04-25T06:47:27;97765.44;;;4.81;81.87
79671;BME280;69137;50.878;8.050;2023-04-25T06:49:52;97780.78;;;4.93;80.97
79671;BME280;69137;50.878;8.050;2023-04-25T06:52:18;97774.66;;;4.97;80.73
79671;BME280;69137;50.878;8.050;2023-04-25T06:54:44;97781.22;;;5.01;80.96
79671;BME280;69137;50.878;8.050;2023-04-25T06:57:09;97783.94;;;5.01;81.03
79671;BME280;69137;50.878;8.050;2023-04-25T06:59:35;97780.31;;;5.13;80.04
79671;BME280;69137;50.878;8.050;2023-04-25T07:02:00;97782.28;;;5.17;79.33
79671;BME280;69137;50.878;8.050;2023-04-25T07:04:26;97785.59;;;5.19;79.28
79671;BME280;69137;50.878;8.050;2023-04-25T07:06:51;97784.34;;;5.10;79.77
79671;BME280;69137;50.878;8.050;2023-04-25T07:09:16;97789.66;;;5.05;80.25
79671;BME280;69137;50.878;8.050;2023-04-25T07:11:42;97797.06;;;5.10;76.88
79671;BME280;69137;50.878;8.050;2023-04-25T07:14:07;97797.38;;;4.96;75.32
79671;BME280;69137;50.878;8.050;2023-04-25T07:16:33;97800.53;;;4.76;76.47
79671;BME280;69137;50.878;8.050;2023-04-25T07:18:58;97809.34;;;4.55;76.10
79671;BME280;69137;50.878;8.050;2023-04-25T07:21:24;97823.25;;;4.47;80.04
79671;BME280;69137;50.878;8.050;2023-04-25T07:23:50;97822.09;;;4.43;80.71
79671;BME280;69137;50.878;8.050;2023-04-25T07:26:16;97816.94;;;4.41;81.25
79671;BME280;69137;50.878;8.050;2023-04-25T07:28:41;97814.69;;;4.38;81.08
79671;BME280;69137;50.878;8.050;2023-04-25T07:31:07;97819.19;;;4.32;81.76
79671;BME280;69137;50.878;8.050;2023-04-25T07:33:33;97819.16;;;4.44;81.68
79671;BME280;69137;50.878;8.050;2023-04-25T07:35:58;97825.97;;;4.47;82.83
79671;BME280;69137;50.878;8.050;2023-04-25T07:38:24;97817.06;;;4.63;81.57
79671;BME280;69137;50.878;8.050;2023-04-25T07:40:50;97826.69;;;4.71;81.96
79671;BME280;69137;50.878;8.050;2023-04-25T07:43:16;97818.25;;;4.67;81.92
79671;BME280;69137;50.878;8.050;2023-04-25T07:45:44;97828.06;;;4.85;79.00
79671;BME280;69137;50.878;8.050;2023-04-25T07:48:10;97833.00;;;5.05;81.15
79671;BME280;69137;50.878;8.050;2023-04-25T07:50:35;97831.13;;;5.22;79.83
79671;BME280;69137;50.878;8.050;2023-04-25T07:53:01;97829.88;;;5.47;79.11
79671;BME280;69137;50.878;8.050;2023-04-25T07:55:27;97832.09;;;5.67;79.45
79671;BME280;69137;50.878;8.050;2023-04-25T07:57:53;97836.94;;;5.82;79.10
79671;BME280;69137;50.878;8.050;2023-04-25T08:00:19;97836.59;;;5.78;77.53
79671;BME280;69137;50.878;8.050;2023-04-25T08:02:44;97837.84;;;5.87;77.07
79671;BME280;69137;50.878;8.050;2023-04-25T08:05:10;97844.00;;;6.00;77.60
79671;BME280;69137;50.878;8.050;2023-04-25T08:07:39;97838.59;;;6.00;72.80
79671;BME280;69137;50.878;8.050;2023-04-25T08:10:06;97861.16;;;6.05;74.25
79671;BME280;69137;50.878;8.050;2023-04-25T08:12:31;97859.28;;;6.06;73.16
79671;BME280;69137;50.878;8.050;2023-04-25T08:14:57;97859.84;;;6.30;74.13
79671;BME280;69137;50.878;8.050;2023-04-25T08:17:23;97862.25;;;6.48;74.91
79671;BME280;69137;50.878;8.050;2023-04-25T08:19:48;97865.78;;;6.71;70.11
79671;BME280;69137;50.878;8.050;2023-04-25T08:22:14;97868.84;;;7.02;70.17
79671;BME280;69137;50.878;8.050;2023-04-25T08:24:40;97864.97;;;7.19;68.41
79671;BME280;69137;50.878;8.050;2023-04-25T08:27:05;97864.16;;;7.19;68.11
79671;BME280;69137;50.878;8.050;2023-04-25T08:29:32;97869.16;;;7.32;66.67
79671;BME280;69137;50.878;8.050;2023-04-25T08:31:58;97877.78;;;7.24;64.83
79671;BME280;69137;50.878;8.050;2023-04-25T08:34:24;97875.13;;;7.29;66.54
79671;BME280;69137;50.878;8.050;2023-04-25T08:36:50;97879.06;;;7.16;63.58
79671;BME280;69137;50.878;8.050;2023-04-25T08:39:16;97881.69;;;7.06;66.02
79671;BME280;69137;50.878;8.050;2023-04-25T08:41:41;97885.03;;;7.18;64.49
79671;BME280;69137;50.878;8.050;2023-04-25T08:44:10;97878.53;;;7.19;61.71
79671;BME280;69137;50.878;8.050;2023-04-25T08:46:38;97885.81;;;7.14;63.60
79671;BME280;69137;50.878;8.050;2023-04-25T08:49:04;97887.25;;;6.94;61.00
79671;BME280;69137;50.878;8.050;2023-04-25T08:51:32;97890.41;;;6.86;61.22
79671;BME280;69137;50.878;8.050;2023-04-25T08:53:59;97899.81;;;7.00;62.00
79671;BME280;69137;50.878;8.050;2023-04-25T08:56:28;97906.00;;;6.96;63.09
79671;BME280;69137;50.878;8.050;2023-04-25T08:58:54;97895.44;;;6.99;60.32
79671;BME280;69137;50.878;8.050;2023-04-25T09:01:20;97910.09;;;6.98;60.79
79671;BME280;69137;50.878;8.050;2023-04-25T09:03:46;97899.13;;;6.88;59.95
79671;BME280;69137;50.878;8.050;2023-04-25T09:06:12;97913.88;;;6.97;59.01
79671;BME280;69137;50.878;8.050;2023-04-25T09:08:38;97912.38;;;6.85;58.99
79671;BME280;69137;50.878;8.050;2023-04-25T09:11:06;97914.44;;;6.99;58.76
79671;BME280;69137;50.878;8.050;2023-04-25T09:13:31;97913.22;;;6.85;57.07
79671;BME280;69137;50.878;8.050;2023-04-25T09:15:57;97913.75;;;7.09;59.30
79671;BME280;69137;50.878;8.050;2023-04-25T09:18:28;97912.53;;;7.22;59.64
79671;BME280;69137;50.878;8.050;2023-04-25T09:20:54;97911.81;;;7.32;57.12
79671;BME280;69137;50.878;8.050;2023-04-25T09:23:21;97918.13;;;7.37;56.76
79671;BME280;69137;50.878;8.050;2023-04-25T09:25:51;97920.38;;;7.46;56.68
79671;BME280;69137;50.878;8.050;2023-04-25T09:28:23;97926.31;;;7.42;55.63
79671;BME280;69137;50.878;8.050;2023-04-25T09:30:49;97926.16;;;7.54;55.89
79671;BME280;69137;50.878;8.050;2023-04-25T09:33:14;97930.16;;;7.47;56.04
79671;BME280;69137;50.878;8.050;2023-04-25T09:35:41;97931.56;;;7.22;53.39
79671;BME280;69137;50.878;8.050;2023-04-25T09:38:13;97937.63;;;7.07;55.25
79671;BME280;69137;50.878;8.050;2023-04-25T09:40:42;97943.63;;;7.09;55.47
79671;BME280;69137;50.878;8.050;2023-04-25T09:43:09;97943.81;;;7.03;55.41
79671;BME280;69137;50.878;8.050;2023-04-25T09:45:42;97950.03;;;6.98;56.13
79671;BME280;69137;50.878;8.050;2023-04-25T09:48:12;97954.31;;;6.94;56.48
79671;BME280;69137;50.878;8.050;2023-04-25T09:50:41;97953.75;;;6.92;55.50
79671;BME280;69137;50.878;8.050;2023-04-25T09:53:07;97957.03;;;6.94;57.00
79671;BME280;69137;50.878;8.050;2023-04-25T09:55:33;97965.13;;;6.89;57.53
79671;BME280;69137;50.878;8.050;2023-04-25T09:58:04;97957.53;;;6.91;57.32
79671;BME280;69137;50.878;8.050;2023-04-25T10:00:33;97971.69;;;6.93;56.33
79671;BME280;69137;50.878;8.050;2023-04-25T10:03:01;97974.75;;;6.79;56.82
79671;BME280;69137;50.878;8.050;2023-04-25T10:05:32;97973.63;;;6.75;58.13
79671;BME280;69137;50.878;8.050;2023-04-25T10:08:02;97966.88;;;6.78;57.13
79671;BME280;69137;50.878;8.050;2023-04-25T10:10:30;97982.38;;;6.77;56.95
79671;BME280;69137;50.878;8.050;2023-04-25T10:12:58;97979.66;;;6.77;56.97
79671;BME280;69137;50.878;8.050;2023-04-25T10:15:24;97982.56;;;6.93;59.06
79671;BME280;69137;50.878;8.050;2023-04-25T10:17:50;97983.00;;;7.07;56.43
79671;BME280;69137;50.878;8.050;2023-04-25T10:20:16;97978.25;;;7.19;56.74
79671;BME280;69137;50.878;8.050;2023-04-25T10:22:44;97981.63;;;7.31;56.33
79671;BME280;69137;50.878;8.050;2023-04-25T10:25:10;97979.34;;;7.72;56.46
79671;BME280;69137;50.878;8.050;2023-04-25T10:27:36;97980.44;;;7.71;56.72
79671;BME280;69137;50.878;8.050;2023-04-25T10:30:03;97974.31;;;7.86;57.25
79671;BME280;69137;50.878;8.050;2023-04-25T10:32:33;97976.13;;;8.07;56.94
79671;BME280;69137;50.878;8.050;2023-04-25T10:35:10;97979.13;;;8.11;54.93
79671;BME280;69137;50.878;8.050;2023-04-25T10:37:36;97968.06;;;8.23;55.39
79671;BME280;69137;50.878;8.050;2023-04-25T10:40:08;97965.78;;;8.42;55.52
79671;BME280;69137;50.878;8.050;2023-04-25T10:42:35;97966.59;;;8.42;53.89
79671;BME280;69137;50.878;8.050;2023-04-25T10:45:03;97965.94;;;8.30;52.50
79671;BME280;69137;50.878;8.050;2023-04-25T10:47:36;97970.00;;;8.27;52.18
79671;BME280;69137;50.878;8.050;2023-04-25T10:50:08;97968.06;;;8.60;52.05
79671;BME280;69137;50.878;8.050;2023-04-25T10:52:34;97977.31;;;8.59;51.42
79671;BME280;69137;50.878;8.050;2023-04-25T10:55:02;97970.00;;;8.65;50.68
79671;BME280;69137;50.878;8.050;2023-04-25T10:57:41;97966.69;;;8.58;50.54
79671;BME280;69137;50.878;8.050;2023-04-25T11:02:44;97984.72;;;7.94;54.52
79671;BME280;69137;50.878;8.050;2023-04-25T11:05:20;97993.16;;;7.98;54.30
79671;BME280;69137;50.878;8.050;2023-04-25T11:07:51;98000.84;;;8.06;54.46
79671;BME280;69137;50.878;8.050;2023-04-25T11:10:17;98004.81;;;7.93;52.69
79671;BME280;69137;50.878;8.050;2023-04-25T11:12:45;98002.75;;;7.73;51.29
79671;BME280;69137;50.878;8.050;2023-04-25T11:15:11;98001.00;;;7.62;53.69
79671;BME280;69137;50.878;8.050;2023-04-25T11:17:37;97998.69;;;7.49;56.70
79671;BME280;69137;50.878;8.050;2023-04-25T11:20:05;98000.38;;;7.55;55.88
79671;BME280;69137;50.878;8.050;2023-04-25T11:22:37;98000.47;;;7.65;52.10
79671;BME280;69137;50.878;8.050;2023-04-25T11:25:10;98000.63;;;7.80;52.62
79671;BME280;69137;50.878;8.050;2023-04-25T11:27:52;98002.16;;;7.98;52.56
79671;BME280;69137;50.878;8.050;2023-04-25T11:30:18;98010.75;;;8.17;53.65
79671;BME280;69137;50.878;8.050;2023-04-25T11:32:44;98003.22;;;8.29;52.84
79671;BME280;69137;50.878;8.050;2023-04-25T11:35:10;98002.03;;;8.15;51.13
79671;BME280;69137;50.878;8.050;2023-04-25T11:37:36;98005.00;;;8.14;51.17
79671;BME280;69137;50.878;8.050;2023-04-25T11:40:03;98010.63;;;8.02;53.09
79671;BME280;69137;50.878;8.050;2023-04-25T11:42:30;98028.19;;;7.89;53.97
79671;BME280;69137;50.878;8.050;2023-04-25T11:44:55;98010.13;;;7.78;55.68
79671;BME280;69137;50.878;8.050;2023-04-25T11:47:30;98020.31;;;7.93;52.29
79671;BME280;69137;50.878;8.050;2023-04-25T11:49:58;98016.47;;;7.88;54.11
79671;BME280;69137;50.878;8.050;2023-04-25T11:52:23;98019.00;;;7.68;54.88
79671;BME280;69137;50.878;8.050;2023-04-25T11:54:49;98016.72;;;7.60;50.12
79671;BME280;69137;50.878;8.050;2023-04-25T11:57:14;98018.84;;;7.53;52.55
79671;BME280;69137;50.878;8.050;2023-04-25T11:59:43;98015.56;;;7.51;55.55
79671;BME280;69137;50.878;8.050;2023-04-25T12:02:09;98015.50;;;7.46;49.92
79671;BME280;69137;50.878;8.050;2023-04-25T12:04:34;98014.53;;;7.57;49.32
79671;BME280;69137;50.878;8.050;2023-04-25T12:07:00;98019.16;;;7.83;50.00
79671;BME280;69137;50.878;8.050;2023-04-25T12:09:31;98018.28;;;8.05;49.00
79671;BME280;69137;50.878;8.050;2023-04-25T12:11:59;98016.22;;;8.17;47.46
79671;BME280;69137;50.878;8.050;2023-04-25T12:14:29;98011.84;;;8.48;46.25
79671;BME280;69137;50.878;8.050;2023-04-25T12:16:56;98008.22;;;8.80;45.72
79671;BME280;69137;50.878;8.050;2023-04-25T12:19:26;98018.47;;;9.15;44.49
79671;BME280;69137;50.878;8.050;2023-04-25T12:21:52;98014.66;;;9.16;42.95
79671;BME280;69137;50.878;8.050;2023-04-25T12:24:21;98006.50;;;9.22;42.85
79671;BME280;69137;50.878;8.050;2023-04-25T12:26:54;98003.31;;;9.40;43.49
79671;BME280;69137;50.878;8.050;2023-04-25T12:29:25;98003.91;;;9.57;42.71
79671;BME280;69137;50.878;8.050;2023-04-25T12:31:52;98017.03;;;9.76;42.88
79671;BME280;69137;50.878;8.050;2023-04-25T12:34:19;98010.44;;;9.61;41.49
79671;BME280;69137;50.878;8.050;2023-04-25T12:36:45;98012.31;;;9.46;43.47
79671;BME280;69137;50.878;8.050;2023-04-25T12:39:21;98029.69;;;9.24;42.48
79671;BME280;69137;50.878;8.050;2023-04-25T12:41:50;98023.09;;;9.15;43.99
79671;BME280;69137;50.878;8.050;2023-04-25T12:44:17;98024.09;;;8.93;42.17
79671;BME280;69137;50.878;8.050;2023-04-25T12:46:43;98027.53;;;8.79;42.91
79671;BME280;69137;50.878;8.050;2023-04-25T12:49:08;98034.63;;;8.74;42.04
79671;BME280;69137;50.878;8.050;2023-04-25T12:51:35;98039.81;;;8.81;42.52
79671;BME280;69137;50.878;8.050;2023-04-25T12:54:01;98047.00;;;8.98;43.52
79671;BME280;69137;50.878;8.050;2023-04-25T12:56:28;98044.56;;;9.01;39.88
79671;BME280;69137;50.878;8.050;2023-04-25T12:58:54;98040.75;;;9.02;40.54
79671;BME280;69137;50.878;8.050;2023-04-25T13:01:20;98036.97;;;9.08;41.24
79671;BME280;69137;50.878;8.050;2023-04-25T13:03:46;98034.78;;;9.10;39.95
79671;BME280;69137;50.878;8.050;2023-04-25T13:06:11;98043.97;;;8.94;39.45
79671;BME280;69137;50.878;8.050;2023-04-25T13:08:38;98034.34;;;8.76;41.30